createdAt,value
2023-04-01T00:02:26.406Z,3.08
2023-04-01T00:05:12.474Z,4.93
2023-04-01T00:07:55.344Z,5.50
2023-04-01T00:10:38.242Z,6.03
2023-04-01T00:13:21.721Z,4.25
2023-04-01T00:16:17.636Z,3.78
2023-04-01T00:19:01.006Z,3.35
2023-04-01T00:21:45.338Z,4.38
2023-04-01T00:24:28.484Z,3.50
2023-04-01T00:27:11.377Z,3.88
2023-04-01T00:29:54.274Z,3.25
2023-04-01T00:32:37.251Z,4.50
2023-04-01T00:35:20.784Z,4.18
2023-04-01T00:38:05.788Z,2.75
2023-04-01T00:40:49.031Z,4.80
2023-04-01T00:43:32.533Z,4.35
2023-04-01T00:46:15.596Z,5.63
2023-04-01T00:48:58.794Z,4.25
2023-04-01T00:51:44.012Z,3.15
2023-04-01T00:54:30.788Z,2.35
2023-04-01T00:57:17.624Z,3.13
2023-04-01T01:00:01.101Z,4.70
2023-04-01T01:02:46.487Z,3.83
2023-04-01T01:05:49.567Z,8.18
2023-04-01T01:08:54.692Z,4.75
2023-04-01T01:11:44.092Z,4.55
2023-04-01T01:14:41.420Z,5.90
2023-04-01T01:17:38.532Z,4.15
2023-04-01T01:20:35.408Z,4.78
2023-04-01T01:23:54.061Z,4.43
2023-04-01T01:26:49.047Z,5.93
2023-04-01T01:29:54.840Z,3.30
2023-04-01T01:33:08.129Z,3.60
2023-04-01T01:35:56.187Z,6.00
2023-04-01T01:38:40.446Z,4.57
2023-04-01T01:41:27.645Z,3.10
2023-04-01T01:44:14.583Z,4.35
2023-04-01T01:46:58.784Z,2.88
2023-04-01T01:49:43.950Z,4.50
2023-04-01T01:52:30.412Z,2.80
2023-04-01T01:55:30.237Z,3.13
2023-04-01T01:58:19.012Z,2.63
2023-04-01T02:01:06.176Z,3.10
2023-04-01T02:03:50.674Z,5.32
2023-04-01T02:06:40.893Z,3.25
2023-04-01T02:09:25.417Z,3.90
2023-04-01T02:15:01.260Z,3.20
2023-04-01T02:17:47.414Z,2.80
2023-04-01T02:20:32.225Z,4.50
2023-04-01T02:23:15.916Z,4.05
2023-04-01T02:26:00.339Z,2.60
2023-04-01T02:28:47.132Z,1.52
2023-04-01T02:31:30.419Z,2.17
2023-04-01T02:34:14.114Z,1.88
2023-04-01T02:36:58.488Z,4.15
2023-04-01T02:39:43.413Z,5.07
2023-04-01T02:42:27.716Z,3.35
2023-04-01T02:45:11.817Z,3.72
2023-04-01T02:47:55.081Z,4.53
2023-04-01T02:50:37.997Z,6.18
2023-04-01T02:53:20.985Z,4.18
2023-04-01T02:56:04.075Z,4.40
2023-04-01T02:58:48.344Z,3.03
2023-04-01T03:01:31.499Z,2.55
2023-04-01T03:04:14.425Z,2.35
2023-04-01T03:06:57.413Z,2.88
2023-04-01T03:09:40.962Z,2.10
2023-04-01T03:12:23.967Z,2.80
2023-04-01T03:15:12.359Z,4.85
2023-04-01T03:17:56.168Z,2.63
2023-04-01T03:20:39.146Z,5.05
2023-04-01T03:23:22.167Z,4.15
2023-04-01T03:26:06.287Z,1.98
2023-04-01T03:28:49.813Z,3.35
2023-04-01T03:31:34.155Z,2.42
2023-04-01T03:34:17.217Z,3.80
2023-04-01T03:37:00.757Z,1.02
2023-04-01T03:39:44.635Z,1.70
2023-04-01T03:42:27.803Z,2.95
2023-04-01T03:45:12.835Z,4.22
2023-04-01T03:47:57.517Z,3.42
2023-04-01T03:53:23.731Z,4.30
2023-04-01T03:56:08.839Z,2.03
2023-04-01T03:58:52.812Z,3.80
2023-04-01T04:01:35.935Z,3.30
2023-04-01T04:04:21.056Z,7.80
2023-04-01T04:07:04.502Z,6.07
2023-04-01T04:10:00.264Z,3.25
2023-04-01T04:12:43.195Z,2.80
2023-04-01T04:15:26.623Z,3.60
2023-04-01T04:18:09.576Z,6.07
2023-04-01T04:20:54.211Z,3.63
2023-04-01T04:23:38.289Z,4.93
2023-04-01T04:26:21.460Z,1.70
2023-04-01T04:29:10.949Z,1.90
2023-04-01T04:31:54.026Z,4.75
2023-04-01T04:34:37.162Z,6.18
2023-04-01T04:37:21.400Z,2.95
2023-04-01T04:40:04.773Z,2.47
2023-04-01T04:42:48.525Z,2.97
2023-04-01T04:45:33.104Z,3.47
2023-04-01T04:48:19.782Z,3.90
2023-04-01T04:51:03.673Z,1.98
2023-04-01T04:53:49.595Z,2.50
2023-04-01T04:56:34.234Z,2.17
2023-04-01T04:59:21.833Z,1.77
2023-04-01T05:02:19.414Z,2.00
2023-04-01T05:05:03.997Z,4.20
2023-04-01T05:07:47.037Z,2.72
2023-04-01T05:10:32.361Z,2.63
2023-04-01T05:13:15.560Z,2.45
2023-04-01T05:16:01.989Z,3.78
2023-04-01T05:18:45.442Z,3.63
2023-04-01T05:21:28.408Z,2.42
2023-04-01T05:24:13.184Z,3.67
2023-04-01T05:26:58.384Z,1.30
2023-04-01T05:29:42.188Z,3.65
2023-04-01T05:32:33.280Z,3.20
2023-04-01T05:35:17.652Z,3.08
2023-04-01T05:38:00.733Z,2.30
2023-04-01T05:40:43.716Z,1.80
2023-04-01T05:43:28.274Z,2.05
2023-04-01T05:46:13.458Z,4.68
2023-04-01T05:49:09.250Z,1.40
2023-04-01T05:51:53.275Z,2.60
2023-04-01T05:57:20.590Z,3.47
2023-04-01T06:00:06.255Z,3.10
2023-04-01T06:02:55.240Z,2.75
2023-04-01T06:05:42.198Z,4.05
2023-04-01T06:08:26.731Z,1.83
2023-04-01T06:11:24.980Z,1.45
2023-04-01T06:14:25.739Z,1.85
2023-04-01T06:17:29.068Z,2.40
2023-04-01T06:20:23.140Z,1.00
2023-04-01T06:23:22.462Z,1.48
2023-04-01T06:26:23.802Z,2.03
2023-04-01T06:29:45.404Z,2.25
2023-04-01T06:32:52.955Z,2.00
2023-04-01T06:36:00.686Z,4.20
2023-04-01T06:39:00.795Z,2.08
2023-04-01T06:42:25.928Z,2.00
2023-04-01T06:45:22.431Z,2.67
2023-04-01T06:48:47.422Z,3.42
2023-04-01T06:52:00.485Z,3.47
2023-04-01T06:55:08.216Z,3.58
2023-04-01T06:58:21.170Z,18.35
2023-04-01T07:01:08.177Z,9.40
2023-04-01T07:03:57.767Z,11.43
2023-04-01T07:06:47.588Z,4.05
2023-04-01T07:09:34.603Z,2.53
2023-04-01T07:12:45.090Z,2.17
2023-04-01T07:15:57.883Z,2.13
2023-04-01T07:18:47.859Z,2.33
2023-04-01T07:21:38.137Z,1.35
2023-04-01T07:24:35.701Z,1.48
2023-04-01T07:27:21.561Z,1.38
2023-04-01T07:30:06.825Z,1.80
2023-04-01T07:32:54.354Z,0.50
2023-04-01T07:35:43.569Z,2.60
2023-04-01T07:38:38.076Z,0.60
2023-04-01T07:41:29.198Z,1.70
2023-04-01T07:44:17.953Z,1.38
2023-04-01T07:47:25.227Z,1.48
2023-04-01T07:50:16.087Z,1.40
2023-04-01T07:53:10.444Z,1.67
2023-04-01T07:58:55.835Z,2.88
2023-04-01T08:02:13.072Z,2.35
2023-04-01T08:05:06.306Z,1.50
2023-04-01T08:07:58.935Z,1.75
2023-04-01T08:11:09.216Z,0.93
2023-04-01T08:14:21.731Z,1.30
2023-04-01T08:17:52.730Z,1.88
2023-04-01T08:20:41.547Z,1.77
2023-04-01T08:23:28.038Z,1.10
2023-04-01T08:26:18.967Z,0.75
2023-04-01T08:29:06.141Z,1.48
2023-04-01T08:31:57.174Z,0.95
2023-04-01T08:34:42.682Z,2.05
2023-04-01T08:37:37.256Z,2.95
2023-04-01T08:40:57.365Z,1.00
2023-04-01T08:44:19.715Z,1.10
2023-04-01T08:47:38.078Z,1.15
2023-04-01T08:50:46.745Z,0.82
2023-04-01T08:54:03.876Z,1.45
2023-04-01T08:56:55.744Z,2.38
2023-04-01T08:59:58.456Z,1.13
2023-04-01T09:03:41.030Z,2.60
2023-04-01T09:06:42.623Z,1.50
2023-04-01T09:10:18.068Z,0.80
2023-04-01T09:13:18.110Z,1.35
2023-04-01T09:16:30.286Z,2.90
2023-04-01T09:19:30.816Z,1.67
2023-04-01T09:22:43.783Z,1.33
2023-04-01T09:25:48.043Z,1.00
2023-04-01T09:28:43.925Z,1.83
2023-04-01T09:31:56.958Z,1.83
2023-04-01T09:35:12.938Z,1.08
2023-04-01T09:38:11.872Z,1.73
2023-04-01T09:40:58.540Z,3.45
2023-04-01T09:44:04.780Z,1.65
2023-04-01T09:47:08.069Z,1.58
2023-04-01T09:50:21.109Z,2.25
2023-04-01T09:53:15.895Z,2.53
2023-04-01T09:56:40.313Z,3.50
2023-04-01T09:59:57.020Z,1.67
2023-04-01T10:03:04.604Z,3.17
2023-04-01T10:06:21.340Z,1.67
2023-04-01T10:10:00.982Z,0.98
2023-04-01T10:13:13.984Z,3.40
2023-04-01T10:16:37.288Z,2.03
2023-04-01T10:19:51.190Z,0.97
2023-04-01T10:23:00.284Z,2.00
2023-04-01T10:26:13.063Z,0.98
2023-04-01T10:29:23.416Z,2.05
2023-04-01T10:32:43.576Z,0.73
2023-04-01T10:35:54.384Z,1.15
2023-04-01T10:39:31.067Z,1.30
2023-04-01T10:43:02.651Z,2.15
2023-04-01T10:46:27.975Z,1.75
2023-04-01T10:49:39.887Z,1.00
2023-04-01T10:53:01.689Z,3.20
2023-04-01T10:56:49.402Z,1.25
2023-04-01T11:00:19.148Z,13.48
2023-04-01T11:04:12.409Z,5.18
2023-04-01T11:08:06.478Z,1.38
2023-04-01T11:11:27.623Z,4.35
2023-04-01T11:14:55.132Z,1.70
2023-04-01T11:18:28.891Z,3.00
2023-04-01T11:21:42.138Z,2.38
2023-04-01T11:25:10.024Z,2.28
2023-04-01T11:28:19.148Z,2.88
2023-04-01T11:31:19.123Z,2.25
2023-04-01T11:34:13.917Z,1.30
2023-04-01T11:37:09.136Z,2.22
2023-04-01T11:40:09.269Z,1.15
2023-04-01T11:43:32.374Z,1.45
2023-04-01T11:46:44.938Z,1.90
2023-04-01T11:49:43.059Z,2.33
2023-04-01T11:52:52.341Z,3.42
2023-04-01T11:55:50.663Z,5.15
2023-04-01T11:59:02.562Z,3.72
2023-04-01T12:01:55.900Z,5.95
2023-04-01T12:05:00.404Z,4.60
2023-04-01T12:08:02.926Z,2.90
2023-04-01T12:10:55.192Z,2.60
2023-04-01T12:13:45.450Z,1.25
2023-04-01T12:16:52.233Z,1.35
2023-04-01T12:19:46.648Z,2.60
2023-04-01T12:22:43.450Z,1.42
2023-04-01T12:25:45.131Z,3.47
2023-04-01T12:28:42.314Z,3.22
2023-04-01T12:31:37.917Z,2.47
2023-04-01T12:34:53.987Z,1.95
2023-04-01T12:37:44.354Z,23.77
2023-04-01T12:40:47.089Z,9.75
2023-04-01T12:43:56.126Z,6.97
2023-04-01T12:46:54.563Z,5.28
2023-04-01T12:49:56.360Z,7.60
2023-04-01T12:52:54.169Z,8.13
2023-04-01T12:55:43.723Z,2.53
2023-04-01T12:58:57.257Z,9.00
2023-04-01T13:02:09.829Z,4.93
2023-04-01T13:05:22.206Z,2.22
2023-04-01T13:08:21.492Z,1.23
2023-04-01T13:11:16.273Z,1.67
2023-04-01T13:14:31.829Z,1.90
2023-04-01T13:20:13.956Z,3.70
2023-04-01T13:23:07.164Z,2.35
2023-04-01T13:26:07.086Z,2.78
2023-04-01T13:29:01.241Z,1.92
2023-04-01T13:31:55.936Z,3.72
2023-04-01T13:34:48.652Z,5.78
2023-04-01T13:37:47.209Z,3.80
2023-04-01T13:41:02.376Z,6.07
2023-04-01T13:43:51.669Z,21.35
2023-04-01T13:46:51.390Z,26.50
2023-04-01T13:49:49.339Z,9.25
2023-04-01T13:52:48.249Z,8.38
2023-04-01T13:55:41.842Z,16.63
2023-04-01T13:59:04.471Z,5.85
2023-04-01T14:01:54.631Z,24.60
2023-04-01T14:04:52.026Z,8.90
2023-04-01T14:07:51.117Z,2.72
2023-04-01T14:10:42.692Z,1.00
2023-04-01T14:13:35.132Z,1.33
2023-04-01T14:16:49.628Z,0.57
2023-04-01T14:19:52.686Z,0.93
2023-04-01T14:22:46.698Z,0.38
2023-04-01T14:25:49.531Z,0.20
2023-04-01T14:28:45.855Z,0.20
2023-04-01T14:31:55.071Z,0.25
2023-04-01T14:34:54.375Z,0.35
2023-04-01T14:37:58.049Z,0.75
2023-04-01T14:40:57.972Z,0.50
2023-04-01T14:44:01.574Z,1.48
2023-04-01T14:47:04.262Z,1.08
2023-04-01T14:49:50.106Z,0.40
2023-04-01T14:52:35.818Z,2.22
2023-04-01T14:55:33.505Z,1.45
2023-04-01T14:58:19.780Z,17.45
2023-04-01T15:01:17.652Z,7.32
2023-04-01T15:04:15.033Z,1.15
2023-04-01T15:07:18.065Z,1.90
2023-04-01T15:10:10.341Z,1.10
2023-04-01T15:13:07.951Z,2.33
2023-04-01T15:16:03.917Z,0.65
2023-04-01T15:18:59.554Z,1.77
2023-04-01T15:21:52.903Z,0.70
2023-04-01T15:24:48.137Z,0.98
2023-04-01T15:27:43.494Z,2.78
2023-04-01T15:30:38.424Z,6.68
2023-04-01T15:36:32.731Z,9.60
2023-04-01T15:39:22.113Z,2.03
2023-04-01T15:42:26.676Z,1.23
2023-04-01T15:45:19.658Z,3.85
2023-04-01T15:48:15.994Z,1.27
2023-04-01T15:51:09.675Z,5.32
2023-04-01T15:54:07.658Z,23.13
2023-04-01T15:57:11.512Z,2.92
2023-04-01T16:00:16.151Z,4.38
2023-04-01T16:03:21.715Z,1.50
2023-04-01T16:06:20.900Z,1.13
2023-04-01T16:09:22.266Z,0.50
2023-04-01T16:12:16.211Z,0.43
2023-04-01T16:15:14.265Z,0.50
2023-04-01T16:18:19.737Z,0.68
2023-04-01T16:21:07.260Z,0.60
2023-04-01T16:23:53.513Z,0.52
2023-04-01T16:26:41.133Z,0.47
2023-04-01T16:29:33.263Z,0.73
2023-04-01T16:32:46.460Z,1.00
2023-04-01T16:35:44.110Z,0.50
2023-04-01T16:38:35.202Z,0.57
2023-04-01T16:41:22.665Z,0.70
2023-04-01T16:44:19.988Z,0.30
2023-04-01T16:47:11.640Z,1.52
2023-04-01T16:50:00.354Z,0.50
2023-04-01T16:53:01.046Z,0.25
2023-04-01T16:55:50.960Z,0.35
2023-04-01T16:58:38.018Z,1.35
2023-04-01T17:01:26.823Z,0.30
2023-04-01T17:04:20.562Z,3.05
2023-04-01T17:07:12.423Z,0.10
2023-04-01T17:10:13.082Z,0.30
2023-04-01T17:13:14.125Z,0.55
2023-04-01T17:16:12.302Z,0.20
2023-04-01T17:19:07.501Z,0.50
2023-04-01T17:22:02.711Z,0.57
2023-04-01T17:24:57.676Z,7.55
2023-04-01T17:27:52.899Z,1.70
2023-04-01T17:30:41.109Z,0.88
2023-04-01T17:34:01.747Z,0.98
2023-04-01T17:37:25.808Z,0.20
2023-04-01T17:40:29.544Z,1.00
2023-04-01T17:43:23.688Z,0.50
2023-04-01T17:46:24.251Z,0.43
2023-04-01T17:49:21.397Z,0.43
2023-04-01T17:52:18.605Z,0.60
2023-04-01T17:55:27.397Z,0.60
2023-04-01T17:58:19.952Z,1.33
2023-04-01T18:01:26.982Z,2.42
2023-04-01T18:04:19.833Z,0.30
2023-04-01T18:07:29.159Z,0.43
2023-04-01T18:10:25.894Z,0.43
2023-04-01T18:13:32.573Z,0.30
2023-04-01T18:16:32.381Z,1.00
2023-04-01T18:19:27.429Z,0.55
2023-04-01T18:27:45.072Z,0.73
2023-04-01T18:30:32.469Z,0.60
2023-04-01T18:33:26.488Z,0.57
2023-04-01T18:36:21.500Z,0.82
2023-04-01T18:39:10.405Z,2.35
2023-04-01T18:42:01.846Z,0.77
2023-04-01T18:44:50.427Z,2.60
2023-04-01T18:47:46.708Z,8.55
2023-04-01T18:50:36.616Z,20.25
2023-04-01T18:53:27.024Z,37.10
2023-04-01T18:56:13.815Z,34.83
2023-04-01T18:59:03.998Z,41.00
2023-04-01T19:01:59.807Z,13.23
2023-04-01T19:04:47.701Z,8.73
2023-04-01T19:07:52.355Z,2.53
2023-04-01T19:10:48.497Z,3.65
2023-04-01T19:13:37.753Z,1.70
2023-04-01T19:16:33.524Z,9.98
2023-04-01T19:19:31.449Z,29.90
2023-04-01T19:22:29.602Z,11.48
2023-04-01T19:25:28.776Z,3.72
2023-04-01T19:28:28.329Z,1.60
2023-04-01T19:31:26.394Z,1.35
2023-04-01T19:34:24.729Z,3.90
2023-04-01T19:37:20.576Z,3.55
2023-04-01T19:40:20.889Z,1.05
2023-04-01T19:43:10.778Z,1.20
2023-04-01T19:46:02.974Z,0.60
2023-04-01T19:49:05.963Z,1.15
2023-04-01T19:51:53.695Z,0.57
2023-04-01T19:54:44.436Z,0.75
2023-04-01T19:57:37.056Z,2.58
2023-04-01T20:00:27.290Z,0.70
2023-04-01T20:03:27.366Z,0.47
2023-04-01T20:06:20.997Z,0.55
2023-04-01T20:09:27.220Z,1.58
2023-04-01T20:12:21.804Z,0.68
2023-04-01T20:15:22.252Z,1.33
2023-04-01T20:18:15.773Z,0.68
2023-04-01T20:21:03.795Z,1.17
2023-04-01T20:23:52.746Z,0.80
2023-04-01T20:26:39.741Z,0.60
2023-04-01T20:29:39.304Z,0.80
2023-04-01T20:32:36.191Z,0.40
2023-04-01T20:35:31.591Z,0.65
2023-04-01T20:38:43.052Z,0.60
2023-04-01T20:41:30.295Z,41.58
2023-04-01T20:44:15.405Z,15.43
2023-04-01T20:47:12.769Z,4.95
2023-04-01T20:50:08.887Z,2.53
2023-04-01T20:52:59.190Z,0.80
2023-04-01T20:56:15.189Z,0.70
2023-04-01T20:59:14.668Z,6.38
2023-04-01T21:02:11.028Z,0.60
2023-04-01T21:05:40.020Z,0.68
2023-04-01T21:08:32.155Z,0.52
2023-04-01T21:11:23.254Z,0.60
2023-04-01T21:14:31.436Z,2.78
2023-04-01T21:17:26.626Z,1.77
2023-04-01T21:20:24.042Z,4.93
2023-04-01T21:23:20.072Z,0.90
2023-04-01T21:26:16.638Z,0.73
2023-04-01T21:29:21.009Z,0.57
2023-04-01T21:32:29.160Z,0.50
2023-04-01T21:35:25.645Z,0.57
2023-04-01T21:38:25.482Z,0.60
2023-04-01T21:41:20.151Z,0.80
2023-04-01T21:44:33.813Z,0.65
2023-04-01T21:48:01.794Z,0.98
2023-04-01T21:50:50.223Z,1.00
2023-04-01T21:54:06.144Z,1.15
2023-04-01T21:57:42.929Z,1.35
2023-04-01T22:00:27.783Z,5.53
2023-04-01T22:03:56.790Z,17.48
2023-04-01T22:06:48.592Z,73.50
2023-04-01T22:09:38.885Z,57.80
2023-04-01T22:12:31.994Z,66.15
2023-04-01T22:15:26.374Z,54.17
2023-04-01T22:18:20.520Z,63.55
2023-04-01T22:21:11.613Z,57.50
2023-04-01T22:24:04.099Z,41.70
2023-04-01T22:26:55.903Z,68.57
2023-04-01T22:29:47.843Z,72.18
2023-04-01T22:32:39.754Z,54.75
2023-04-01T22:35:36.217Z,71.75
2023-04-01T22:38:33.851Z,25.48
2023-04-01T22:41:28.459Z,18.70
2023-04-01T22:44:24.368Z,6.35
2023-04-01T22:47:16.264Z,5.53
2023-04-01T22:50:05.681Z,1.98
2023-04-01T22:52:50.268Z,4.35
2023-04-01T22:58:28.263Z,2.78
2023-04-01T23:01:17.253Z,1.50
2023-04-01T23:04:02.038Z,1.67
2023-04-01T23:06:49.311Z,1.60
2023-04-01T23:09:35.403Z,1.25
2023-04-01T23:12:20.521Z,2.40
2023-04-01T23:15:05.375Z,1.25
2023-04-01T23:18:05.103Z,1.38
2023-04-01T23:21:03.556Z,0.98
2023-04-01T23:23:54.769Z,1.40
2023-04-01T23:26:44.551Z,1.25
2023-04-01T23:29:28.800Z,1.00
2023-04-01T23:32:19.220Z,1.30
2023-04-01T23:35:02.475Z,0.95
2023-04-01T23:37:45.469Z,3.63
2023-04-01T23:40:28.360Z,1.00
2023-04-01T23:43:16.366Z,0.82
2023-04-01T23:46:01.068Z,1.00
2023-04-01T23:48:48.021Z,29.08
2023-04-01T23:51:39.683Z,4.95
2023-04-01T23:54:32.422Z,0.98
2023-04-01T23:57:20.703Z,1.95
